PHOGPHKO

Guest
Details From PHOG - Kahului
To PHKO - Kona Intl At Keahole
Flight Number -
Tags Generated
Created
Modified
Stats Distance 72 nm / 134 km
Max Altitude 0 ft / 0 m
Waypoints 2
Social Downloads 3
Likes 0
Share VATSIM

Download

Looking for another format? Having issues loading an existing format? Contact us
Advertisement - Login to hide

Notes

Generated

Route

PHOG PHKO

ID Type Via Altitude Latitude Longitude Leg Dist Tot Dist Heading (true) Name
O PHOG APT - 0 ft / 0 m 20.89802˚ -156.43710˚ - 0 nm - -
O PHKO APT - 0 ft / 0 m 19.75386˚ -156.04429˚ 72 nm 72 nm 162° / 162° -

Altitude Profile

Advertisement - Login to hide

PHOG

Details ICAO PHOG (OGG)
Name Kahului
Region USA (Hawaii)
Timezone Pacific/Honolulu (UTC-10.0)
Stats Elevation 54 ft / 16 m (AMSL)
Location 20.898975° -156.430460°
Runways 2
Magnetic Variation 9.514° E

METAR

PHOG 271354Z AUTO A2997

Decode

TAF

PHOG 271123Z 2712/2812 06012KT P6SM FEW030 SCT050 FM272000 05014G22KT P6SM FEW030 SCT050 FM280500 05012KT P6SM FEW030 SCT050 AMD NOT SKED TIL 271600

Decode

Departure Runways

ID Width Length Bearing (true) Bearing (mag) Surface Threshold Offset Overrun Length
02 150 ft / 46 m 7,013 ft / 2,138 m 34.81° 25.30° Asphalt 0 ft / 0 m 0 ft / 0 m
05 150 ft / 46 m 4,989 ft / 1,521 m 64.91° 55.40° Asphalt 0 ft / 0 m 0 ft / 0 m
20 150 ft / 46 m 7,013 ft / 2,138 m 214.81° 205.30° Asphalt 0 ft / 0 m 0 ft / 0 m
23 150 ft / 46 m 4,989 ft / 1,521 m 244.91° 235.40° Asphalt 0 ft / 0 m 0 ft / 0 m

PHKO

Details ICAO PHKO (KOA)
Name Kona Intl At Keahole
Region USA (Hawaii)
Timezone Pacific/Honolulu (UTC-10.0)
Stats Elevation 45 ft / 14 m (AMSL)
Location 19.739343° -156.045756°
Runways 1
Magnetic Variation 9.422° E

METAR

PHKO 271420Z AUTO 00000KT 9SM BKN022 BKN048 OVC060 25/19 A2994

Decode

TAF

PHKO 271123Z 2712/2812 VRB05KT P6SM FEW025 BKN045 FM271900 22008KT P6SM FEW025 SCT050 FM280500 18006KT P6SM FEW025 SCT050

Decode

Destination Runways

ID Width Length Bearing (true) Bearing (mag) Surface Threshold Offset Overrun Length
17 150 ft / 46 m 11,461 ft / 3,493 m 184.77° 175.35° Asphalt 407 ft / 124 m 0 ft / 0 m
35 150 ft / 46 m 11,461 ft / 3,493 m 4.77° 355.35° Asphalt 0 ft / 0 m 404 ft / 123 m

Approach Navaids

Runway Type Ident Frequency Range Bearing (true) Bearing (mag) Slope Elevation
17 Localiser IKOA 109.70 MHz 18 nm / 33 km 184.77° 175.35° - 43 ft / 13 m (AMSL)
17 Glidescope IKOA 109.70 MHz 10 nm / 19 km 184.77° 175.35° 3.00° 43 ft / 13 m (AMSL)
17 DME IKOA 109.70 MHz 18 nm / 33 km - - - 43 ft / 13 m (AMSL)

Popular Alternatives